sensor_id;sensor_type;location;lat;lon;timestamp;pressure;altitude;pressure_sealevel;temperature;humidity
37206;BME280;23099;42.636;23.198;2023-02-28T00:00:09;92360.38;;;6.00;100.00
37206;BME280;23099;42.636;23.198;2023-02-28T00:02:37;92365.94;;;6.08;100.00
37206;BME280;23099;42.636;23.198;2023-02-28T00:05:04;92373.41;;;6.14;100.00
37206;BME280;23099;42.636;23.198;2023-02-28T00:07:31;92375.97;;;6.23;100.00
37206;BME280;23099;42.636;23.198;2023-02-28T00:09:58;92374.50;;;6.13;100.00
37206;BME280;23099;42.636;23.198;2023-02-28T00:12:25;92380.34;;;6.27;100.00
37206;BME280;23099;42.636;23.198;2023-02-28T00:14:53;92369.25;;;6.25;100.00
37206;BME280;23099;42.636;23.198;2023-02-28T00:17:20;92369.91;;;6.22;100.00
37206;BME280;23099;42.636;23.198;2023-02-28T00:19:47;92375.63;;;6.33;100.00
37206;BME280;23099;42.636;23.198;2023-02-28T00:22:14;92374.16;;;6.35;100.00
37206;BME280;23099;42.636;23.198;2023-02-28T00:24:41;92384.91;;;6.39;100.00
37206;BME280;23099;42.636;23.198;2023-02-28T00:27:08;92393.97;;;6.38;100.00
37206;BME280;23099;42.636;23.198;2023-02-28T00:29:35;92384.00;;;6.35;100.00
37206;BME280;23099;42.636;23.198;2023-02-28T00:32:04;92389.31;;;6.35;100.00
37206;BME280;23099;42.636;23.198;2023-02-28T00:34:31;92374.97;;;6.15;100.00
37206;BME280;23099;42.636;23.198;2023-02-28T00:37:04;92394.78;;;6.18;100.00
37206;BME280;23099;42.636;23.198;2023-02-28T00:39:31;92387.13;;;6.16;100.00
37206;BME280;23099;42.636;23.198;2023-02-28T00:41:58;92379.53;;;6.06;100.00
37206;BME280;23099;42.636;23.198;2023-02-28T00:44:24;92380.72;;;5.88;100.00
37206;BME280;23099;42.636;23.198;2023-02-28T00:46:51;92382.88;;;5.94;100.00
37206;BME280;23099;42.636;23.198;2023-02-28T00:49:20;92387.56;;;5.97;100.00
37206;BME280;23099;42.636;23.198;2023-02-28T00:51:47;92371.19;;;5.95;100.00
37206;BME280;23099;42.636;23.198;2023-02-28T00:54:14;92373.06;;;5.95;100.00
37206;BME280;23099;42.636;23.198;2023-02-28T00:56:41;92375.06;;;5.98;100.00
37206;BME280;23099;42.636;23.198;2023-02-28T00:59:08;92365.88;;;5.95;100.00
37206;BME280;23099;42.636;23.198;2023-02-28T01:01:35;92371.84;;;5.84;100.00
37206;BME280;23099;42.636;23.198;2023-02-28T01:04:01;92372.50;;;5.81;100.00
37206;BME280;23099;42.636;23.198;2023-02-28T01:06:29;92375.44;;;5.88;100.00
37206;BME280;23099;42.636;23.198;2023-02-28T01:08:56;92366.88;;;5.82;100.00
37206;BME280;23099;42.636;23.198;2023-02-28T01:11:23;92366.41;;;5.80;100.00
37206;BME280;23099;42.636;23.198;2023-02-28T01:13:50;92359.69;;;5.83;100.00
37206;BME280;23099;42.636;23.198;2023-02-28T01:16:18;92361.56;;;5.82;100.00
37206;BME280;23099;42.636;23.198;2023-02-28T01:18:44;92366.22;;;5.85;100.00
37206;BME280;23099;42.636;23.198;2023-02-28T01:21:13;92366.41;;;5.89;100.00
37206;BME280;23099;42.636;23.198;2023-02-28T01:23:41;92371.72;;;5.89;100.00
37206;BME280;23099;42.636;23.198;2023-02-28T01:26:09;92363.91;;;5.84;100.00
37206;BME280;23099;42.636;23.198;2023-02-28T01:28:36;92355.25;;;5.66;100.00
37206;BME280;23099;42.636;23.198;2023-02-28T01:31:03;92365.16;;;5.78;100.00
37206;BME280;23099;42.636;23.198;2023-02-28T01:33:31;92367.50;;;5.79;100.00
37206;BME280;23099;42.636;23.198;2023-02-28T01:35:58;92369.19;;;5.84;100.00
37206;BME280;23099;42.636;23.198;2023-02-28T01:38:25;92364.22;;;5.82;100.00
37206;BME280;23099;42.636;23.198;2023-02-28T01:40:53;92368.84;;;5.94;100.00
37206;BME280;23099;42.636;23.198;2023-02-28T01:43:22;92369.63;;;5.94;100.00
37206;BME280;23099;42.636;23.198;2023-02-28T01:45:49;92372.25;;;6.03;100.00
37206;BME280;23099;42.636;23.198;2023-02-28T01:48:17;92367.00;;;5.86;100.00
37206;BME280;23099;42.636;23.198;2023-02-28T01:50:45;92374.47;;;5.92;100.00
37206;BME280;23099;42.636;23.198;2023-02-28T01:53:17;92374.19;;;5.85;100.00
37206;BME280;23099;42.636;23.198;2023-02-28T01:55:47;92380.91;;;5.83;100.00
37206;BME280;23099;42.636;23.198;2023-02-28T01:58:15;92372.31;;;5.86;100.00
37206;BME280;23099;42.636;23.198;2023-02-28T02:00:42;92376.06;;;5.85;100.00
37206;BME280;23099;42.636;23.198;2023-02-28T02:03:12;92371.38;;;5.90;100.00
37206;BME280;23099;42.636;23.198;2023-02-28T02:05:41;92377.78;;;5.89;100.00
37206;BME280;23099;42.636;23.198;2023-02-28T02:08:16;92378.56;;;5.90;100.00
37206;BME280;23099;42.636;23.198;2023-02-28T02:10:45;92369.50;;;5.91;100.00
37206;BME280;23099;42.636;23.198;2023-02-28T02:13:29;92375.06;;;5.98;100.00
37206;BME280;23099;42.636;23.198;2023-02-28T02:16:07;92369.06;;;5.89;100.00
37206;BME280;23099;42.636;23.198;2023-02-28T02:18:40;92375.16;;;5.81;100.00
37206;BME280;23099;42.636;23.198;2023-02-28T02:21:46;92373.59;;;5.80;100.00
37206;BME280;23099;42.636;23.198;2023-02-28T02:24:48;92364.06;;;5.79;100.00
37206;BME280;23099;42.636;23.198;2023-02-28T02:27:25;92368.47;;;5.75;100.00
37206;BME280;23099;42.636;23.198;2023-02-28T02:30:19;92372.63;;;5.84;100.00
37206;BME280;23099;42.636;23.198;2023-02-28T02:33:14;92378.88;;;5.88;100.00
37206;BME280;23099;42.636;23.198;2023-02-28T02:35:52;92376.34;;;5.92;100.00
37206;BME280;23099;42.636;23.198;2023-02-28T02:38:29;92376.34;;;5.92;100.00
37206;BME280;23099;42.636;23.198;2023-02-28T02:41:04;92384.13;;;5.97;100.00
37206;BME280;23099;42.636;23.198;2023-02-28T02:43:36;92388.00;;;5.99;100.00
37206;BME280;23099;42.636;23.198;2023-02-28T02:46:07;92385.81;;;6.01;100.00
37206;BME280;23099;42.636;23.198;2023-02-28T02:48:39;92385.69;;;5.98;100.00
37206;BME280;23099;42.636;23.198;2023-02-28T02:51:11;92389.00;;;5.86;100.00
37206;BME280;23099;42.636;23.198;2023-02-28T02:53:42;92389.88;;;5.69;100.00
37206;BME280;23099;42.636;23.198;2023-02-28T02:56:10;92405.97;;;5.64;100.00
37206;BME280;23099;42.636;23.198;2023-02-28T02:58:41;92396.34;;;5.51;100.00
37206;BME280;23099;42.636;23.198;2023-02-28T03:01:12;92395.88;;;5.49;100.00
37206;BME280;23099;42.636;23.198;2023-02-28T03:03:40;92399.31;;;5.50;100.00
37206;BME280;23099;42.636;23.198;2023-02-28T03:06:08;92399.00;;;5.51;100.00
37206;BME280;23099;42.636;23.198;2023-02-28T03:08:37;92403.41;;;5.47;100.00
37206;BME280;23099;42.636;23.198;2023-02-28T03:11:06;92399.53;;;5.36;100.00
37206;BME280;23099;42.636;23.198;2023-02-28T03:13:46;92405.03;;;5.31;100.00
37206;BME280;23099;42.636;23.198;2023-02-28T03:16:33;92399.06;;;5.34;100.00
37206;BME280;23099;42.636;23.198;2023-02-28T03:19:30;92400.78;;;5.39;100.00
37206;BME280;23099;42.636;23.198;2023-02-28T03:22:14;92413.84;;;5.44;100.00
37206;BME280;23099;42.636;23.198;2023-02-28T03:24:49;92410.91;;;5.45;100.00
37206;BME280;23099;42.636;23.198;2023-02-28T03:27:22;92410.69;;;5.50;100.00
37206;BME280;23099;42.636;23.198;2023-02-28T03:29:57;92413.19;;;5.55;100.00
37206;BME280;23099;42.636;23.198;2023-02-28T03:32:29;92410.22;;;5.57;100.00
37206;BME280;23099;42.636;23.198;2023-02-28T03:35:03;92418.94;;;5.57;100.00
37206;BME280;23099;42.636;23.198;2023-02-28T03:37:35;92414.44;;;5.58;100.00
37206;BME280;23099;42.636;23.198;2023-02-28T03:40:06;92425.03;;;5.58;100.00
37206;BME280;23099;42.636;23.198;2023-02-28T03:42:36;92426.13;;;5.57;100.00
37206;BME280;23099;42.636;23.198;2023-02-28T03:45:08;92421.00;;;5.52;100.00
37206;BME280;23099;42.636;23.198;2023-02-28T03:47:40;92422.28;;;5.46;100.00
37206;BME280;23099;42.636;23.198;2023-02-28T03:50:13;92424.03;;;5.33;100.00
37206;BME280;23099;42.636;23.198;2023-02-28T03:52:50;92421.03;;;5.34;100.00
37206;BME280;23099;42.636;23.198;2023-02-28T03:55:18;92427.78;;;5.32;100.00
37206;BME280;23099;42.636;23.198;2023-02-28T03:57:53;92420.91;;;5.31;100.00
37206;BME280;23099;42.636;23.198;2023-02-28T04:00:28;92418.75;;;5.33;100.00
37206;BME280;23099;42.636;23.198;2023-02-28T04:02:57;92428.56;;;5.32;100.00
37206;BME280;23099;42.636;23.198;2023-02-28T04:05:24;92419.69;;;5.28;100.00
37206;BME280;23099;42.636;23.198;2023-02-28T04:07:52;92423.47;;;5.19;100.00
37206;BME280;23099;42.636;23.198;2023-02-28T04:10:19;92425.75;;;5.20;100.00
37206;BME280;23099;42.636;23.198;2023-02-28T04:12:46;92422.22;;;5.16;100.00
37206;BME280;23099;42.636;23.198;2023-02-28T04:15:13;92420.81;;;5.19;100.00
37206;BME280;23099;42.636;23.198;2023-02-28T04:17:39;92418.59;;;5.21;100.00
37206;BME280;23099;42.636;23.198;2023-02-28T04:20:07;92412.84;;;5.19;100.00
37206;BME280;23099;42.636;23.198;2023-02-28T04:22:36;92413.81;;;5.14;100.00
37206;BME280;23099;42.636;23.198;2023-02-28T04:25:05;92415.50;;;5.10;100.00
37206;BME280;23099;42.636;23.198;2023-02-28T04:27:32;92414.47;;;5.03;100.00
37206;BME280;23099;42.636;23.198;2023-02-28T04:29:59;92408.50;;;5.06;100.00
37206;BME280;23099;42.636;23.198;2023-02-28T04:32:26;92407.44;;;4.98;100.00
37206;BME280;23099;42.636;23.198;2023-02-28T04:34:52;92413.84;;;4.97;100.00
37206;BME280;23099;42.636;23.198;2023-02-28T04:37:19;92408.56;;;4.88;100.00
37206;BME280;23099;42.636;23.198;2023-02-28T04:39:46;92420.25;;;4.87;100.00
37206;BME280;23099;42.636;23.198;2023-02-28T04:42:14;92422.59;;;4.80;100.00
37206;BME280;23099;42.636;23.198;2023-02-28T04:44:41;92420.56;;;4.86;100.00
37206;BME280;23099;42.636;23.198;2023-02-28T04:47:08;92426.94;;;4.85;100.00
37206;BME280;23099;42.636;23.198;2023-02-28T04:49:34;92428.66;;;4.81;100.00
37206;BME280;23099;42.636;23.198;2023-02-28T04:52:01;92438.16;;;4.82;100.00
37206;BME280;23099;42.636;23.198;2023-02-28T04:54:28;92439.38;;;4.93;100.00
37206;BME280;23099;42.636;23.198;2023-02-28T04:56:55;92438.94;;;4.82;100.00
37206;BME280;23099;42.636;23.198;2023-02-28T04:59:24;92438.59;;;4.92;100.00
37206;BME280;23099;42.636;23.198;2023-02-28T05:01:50;92447.03;;;4.94;100.00
37206;BME280;23099;42.636;23.198;2023-02-28T05:04:17;92439.41;;;4.84;100.00
37206;BME280;23099;42.636;23.198;2023-02-28T05:06:44;92450.91;;;4.97;100.00
37206;BME280;23099;42.636;23.198;2023-02-28T05:09:11;92450.91;;;4.97;100.00
37206;BME280;23099;42.636;23.198;2023-02-28T05:11:38;92444.50;;;5.07;100.00
37206;BME280;23099;42.636;23.198;2023-02-28T05:14:06;92450.13;;;5.05;100.00
37206;BME280;23099;42.636;23.198;2023-02-28T05:16:34;92447.34;;;5.02;100.00
37206;BME280;23099;42.636;23.198;2023-02-28T05:19:01;92451.53;;;5.03;100.00
37206;BME280;23099;42.636;23.198;2023-02-28T05:21:30;92455.88;;;5.07;100.00
37206;BME280;23099;42.636;23.198;2023-02-28T05:23:59;92455.56;;;5.17;100.00
37206;BME280;23099;42.636;23.198;2023-02-28T05:26:26;92462.75;;;5.08;100.00
37206;BME280;23099;42.636;23.198;2023-02-28T05:28:53;92461.66;;;5.09;100.00
37206;BME280;23099;42.636;23.198;2023-02-28T05:31:20;92472.25;;;5.18;100.00
37206;BME280;23099;42.636;23.198;2023-02-28T05:33:49;92470.38;;;5.10;100.00
37206;BME280;23099;42.636;23.198;2023-02-28T05:36:15;92472.56;;;5.08;100.00
37206;BME280;23099;42.636;23.198;2023-02-28T05:38:42;92472.09;;;5.06;100.00
37206;BME280;23099;42.636;23.198;2023-02-28T05:41:10;92466.81;;;4.97;100.00
37206;BME280;23099;42.636;23.198;2023-02-28T05:43:37;92478.63;;;5.08;100.00
37206;BME280;23099;42.636;23.198;2023-02-28T05:46:05;92484.25;;;5.15;100.00
37206;BME280;23099;42.636;23.198;2023-02-28T05:48:32;92473.34;;;5.00;100.00
37206;BME280;23099;42.636;23.198;2023-02-28T05:51:00;92490.16;;;5.12;100.00
37206;BME280;23099;42.636;23.198;2023-02-28T05:53:28;92481.28;;;5.08;100.00
37206;BME280;23099;42.636;23.198;2023-02-28T05:55:55;92483.28;;;5.20;100.00
37206;BME280;23099;42.636;23.198;2023-02-28T05:58:21;92478.16;;;5.15;100.00
37206;BME280;23099;42.636;23.198;2023-02-28T06:00:48;92495.78;;;5.19;100.00
37206;BME280;23099;42.636;23.198;2023-02-28T06:03:15;92487.97;;;5.23;100.00
37206;BME280;23099;42.636;23.198;2023-02-28T06:05:42;92481.56;;;5.24;100.00
37206;BME280;23099;42.636;23.198;2023-02-28T06:08:10;92484.34;;;5.36;100.00
37206;BME280;23099;42.636;23.198;2023-02-28T06:10:36;92483.59;;;5.27;100.00
37206;BME280;23099;42.636;23.198;2023-02-28T06:13:06;92496.19;;;5.39;100.00
37206;BME280;23099;42.636;23.198;2023-02-28T06:15:33;92501.81;;;5.46;100.00
37206;BME280;23099;42.636;23.198;2023-02-28T06:17:59;92498.38;;;5.37;100.00
37206;BME280;23099;42.636;23.198;2023-02-28T06:20:27;92497.78;;;5.31;100.00
37206;BME280;23099;42.636;23.198;2023-02-28T06:22:55;92497.59;;;5.36;100.00
37206;BME280;23099;42.636;23.198;2023-02-28T06:25:26;92504.44;;;5.37;100.00
37206;BME280;23099;42.636;23.198;2023-02-28T06:27:53;92503.66;;;5.45;100.00
37206;BME280;23099;42.636;23.198;2023-02-28T06:30:20;92500.09;;;5.41;100.00
37206;BME280;23099;42.636;23.198;2023-02-28T06:32:49;92504.00;;;5.44;100.00
37206;BME280;23099;42.636;23.198;2023-02-28T06:35:17;92505.81;;;5.52;100.00
37206;BME280;23099;42.636;23.198;2023-02-28T06:37:44;92503.31;;;5.55;100.00
37206;BME280;23099;42.636;23.198;2023-02-28T06:40:11;92512.47;;;5.66;100.00
37206;BME280;23099;42.636;23.198;2023-02-28T06:42:39;92507.19;;;5.66;100.00
37206;BME280;23099;42.636;23.198;2023-02-28T06:45:07;92511.28;;;5.55;100.00
37206;BME280;23099;42.636;23.198;2023-02-28T06:47:34;92509.25;;;5.61;100.00
37206;BME280;23099;42.636;23.198;2023-02-28T06:50:02;92513.78;;;5.60;100.00
37206;BME280;23099;42.636;23.198;2023-02-28T06:52:29;92518.59;;;5.50;100.00
37206;BME280;23099;42.636;23.198;2023-02-28T06:54:56;92512.09;;;5.47;100.00
37206;BME280;23099;42.636;23.198;2023-02-28T06:57:27;92517.97;;;5.53;100.00
37206;BME280;23099;42.636;23.198;2023-02-28T06:59:57;92518.94;;;5.48;100.00
37206;BME280;23099;42.636;23.198;2023-02-28T07:02:24;92509.75;;;5.46;100.00
37206;BME280;23099;42.636;23.198;2023-02-28T07:04:51;92522.81;;;5.59;100.00
37206;BME280;23099;42.636;23.198;2023-02-28T07:07:17;92524.69;;;5.59;100.00
37206;BME280;23099;42.636;23.198;2023-02-28T07:09:44;92521.41;;;5.62;100.00
37206;BME280;23099;42.636;23.198;2023-02-28T07:12:11;92523.56;;;5.68;100.00
37206;BME280;23099;42.636;23.198;2023-02-28T07:14:37;92532.44;;;5.73;100.00
37206;BME280;23099;42.636;23.198;2023-02-28T07:17:06;92533.50;;;5.80;100.00
37206;BME280;23099;42.636;23.198;2023-02-28T07:19:33;92530.53;;;5.82;100.00
37206;BME280;23099;42.636;23.198;2023-02-28T07:22:00;92527.72;;;5.87;100.00
37206;BME280;23099;42.636;23.198;2023-02-28T07:24:28;92528.94;;;5.98;100.00
37206;BME280;23099;42.636;23.198;2023-02-28T07:26:55;92525.50;;;5.97;100.00
37206;BME280;23099;42.636;23.198;2023-02-28T07:29:21;92522.09;;;5.97;100.00
37206;BME280;23099;42.636;23.198;2023-02-28T07:31:48;92525.97;;;5.99;100.00
37206;BME280;23099;42.636;23.198;2023-02-28T07:34:17;92523.28;;;6.08;100.00
37206;BME280;23099;42.636;23.198;2023-02-28T07:36:43;92525.63;;;6.10;100.00
37206;BME280;23099;42.636;23.198;2023-02-28T07:39:10;92532.47;;;6.19;100.00
37206;BME280;23099;42.636;23.198;2023-02-28T07:41:37;92529.59;;;6.24;100.00
37206;BME280;23099;42.636;23.198;2023-02-28T07:44:08;92532.31;;;6.16;100.00
37206;BME280;23099;42.636;23.198;2023-02-28T07:46:35;92529.59;;;6.24;100.00
37206;BME280;23099;42.636;23.198;2023-02-28T07:49:02;92527.28;;;6.23;100.00
37206;BME280;23099;42.636;23.198;2023-02-28T07:51:31;92528.38;;;6.22;100.00
37206;BME280;23099;42.636;23.198;2023-02-28T07:53:57;92530.06;;;6.26;100.00
37206;BME280;23099;42.636;23.198;2023-02-28T07:56:24;92528.47;;;6.34;100.00
37206;BME280;23099;42.636;23.198;2023-02-28T07:58:51;92529.53;;;6.42;100.00
37206;BME280;23099;42.636;23.198;2023-02-28T08:01:18;92524.84;;;6.38;100.00
37206;BME280;23099;42.636;23.198;2023-02-28T08:03:45;92523.28;;;6.37;100.00
37206;BME280;23099;42.636;23.198;2023-02-28T08:06:16;92523.44;;;6.41;100.00
37206;BME280;23099;42.636;23.198;2023-02-28T08:08:45;92523.72;;;6.48;100.00
37206;BME280;23099;42.636;23.198;2023-02-28T08:11:12;92523.50;;;6.53;100.00
37206;BME280;23099;42.636;23.198;2023-02-28T08:13:38;92530.53;;;6.58;100.00
37206;BME280;23099;42.636;23.198;2023-02-28T08:16:06;92531.16;;;6.55;100.00
37206;BME280;23099;42.636;23.198;2023-02-28T08:18:33;92540.75;;;6.68;100.00
37206;BME280;23099;42.636;23.198;2023-02-28T08:21:04;92537.59;;;6.74;100.00
37206;BME280;23099;42.636;23.198;2023-02-28T08:23:31;92541.16;;;6.79;100.00
37206;BME280;23099;42.636;23.198;2023-02-28T08:26:00;92539.09;;;6.84;100.00
37206;BME280;23099;42.636;23.198;2023-02-28T08:28:26;92540.38;;;6.78;100.00
37206;BME280;23099;42.636;23.198;2023-02-28T08:30:53;92537.28;;;6.76;100.00
37206;BME280;23099;42.636;23.198;2023-02-28T08:33:20;92538.44;;;6.87;100.00
37206;BME280;23099;42.636;23.198;2023-02-28T08:35:48;92542.03;;;6.91;100.00
37206;BME280;23099;42.636;23.198;2023-02-28T08:38:14;92544.94;;;6.98;100.00
37206;BME280;23099;42.636;23.198;2023-02-28T08:40:41;92543.50;;;7.01;100.00
37206;BME280;23099;42.636;23.198;2023-02-28T08:43:09;92548.75;;;7.09;100.00
37206;BME280;23099;42.636;23.198;2023-02-28T08:45:36;92543.69;;;7.17;100.00
37206;BME280;23099;42.636;23.198;2023-02-28T08:48:03;92542.59;;;7.18;100.00
37206;BME280;23099;42.636;23.198;2023-02-28T08:50:30;92535.84;;;7.20;100.00
37206;BME280;23099;42.636;23.198;2023-02-28T08:52:56;92543.06;;;7.20;100.00
37206;BME280;23099;42.636;23.198;2023-02-28T08:55:23;92536.19;;;7.19;100.00
37206;BME280;23099;42.636;23.198;2023-02-28T08:57:50;92539.28;;;7.21;100.00
37206;BME280;23099;42.636;23.198;2023-02-28T09:00:20;92536.63;;;7.21;100.00
37206;BME280;23099;42.636;23.198;2023-02-28T09:02:47;92544.41;;;7.26;100.00
37206;BME280;23099;42.636;23.198;2023-02-28T09:05:13;92540.63;;;7.27;100.00
37206;BME280;23099;42.636;23.198;2023-02-28T09:07:40;92533.34;;;7.36;100.00
37206;BME280;23099;42.636;23.198;2023-02-28T09:10:08;92532.69;;;7.39;100.00
37206;BME280;23099;42.636;23.198;2023-02-28T09:12:35;92532.16;;;7.33;100.00
37206;BME280;23099;42.636;23.198;2023-02-28T09:15:02;92526.38;;;7.31;100.00
37206;BME280;23099;42.636;23.198;2023-02-28T09:17:30;92521.84;;;7.32;100.00
37206;BME280;23099;42.636;23.198;2023-02-28T09:19:57;92526.03;;;7.33;100.00
37206;BME280;23099;42.636;23.198;2023-02-28T09:22:24;92518.16;;;7.36;100.00
37206;BME280;23099;42.636;23.198;2023-02-28T09:24:51;92527.44;;;7.18;100.00
37206;BME280;23099;42.636;23.198;2023-02-28T09:27:17;92525.53;;;7.19;100.00
37206;BME280;23099;42.636;23.198;2023-02-28T09:29:44;92515.78;;;7.23;100.00
37206;BME280;23099;42.636;23.198;2023-02-28T09:32:11;92530.91;;;7.31;100.00
37206;BME280;23099;42.636;23.198;2023-02-28T09:34:39;92526.88;;;7.25;100.00
37206;BME280;23099;42.636;23.198;2023-02-28T09:37:06;92521.25;;;7.26;100.00
37206;BME280;23099;42.636;23.198;2023-02-28T09:39:32;92523.72;;;7.31;100.00
37206;BME280;23099;42.636;23.198;2023-02-28T09:41:59;92521.28;;;7.38;100.00
37206;BME280;23099;42.636;23.198;2023-02-28T09:44:32;92512.34;;;7.43;100.00
37206;BME280;23099;42.636;23.198;2023-02-28T09:47:07;92514.47;;;7.50;100.00
37206;BME280;23099;42.636;23.198;2023-02-28T09:49:42;92521.53;;;7.45;100.00
37206;BME280;23099;42.636;23.198;2023-02-28T09:52:14;92510.44;;;7.43;100.00
37206;BME280;23099;42.636;23.198;2023-02-28T09:54:42;92513.47;;;7.54;100.00
37206;BME280;23099;42.636;23.198;2023-02-28T09:57:15;92512.81;;;7.57;100.00
37206;BME280;23099;42.636;23.198;2023-02-28T09:59:54;92508.28;;;7.58;100.00
37206;BME280;23099;42.636;23.198;2023-02-28T10:02:45;92513.72;;;7.61;100.00
37206;BME280;23099;42.636;23.198;2023-02-28T10:05:17;92509.97;;;7.62;100.00
37206;BME280;23099;42.636;23.198;2023-02-28T10:07:53;92509.41;;;7.69;100.00
37206;BME280;23099;42.636;23.198;2023-02-28T10:10:27;92492.00;;;7.71;100.00
37206;BME280;23099;42.636;23.198;2023-02-28T10:12:58;92494.22;;;7.69;100.00
37206;BME280;23099;42.636;23.198;2023-02-28T10:15:30;92495.31;;;7.68;100.00
37206;BME280;23099;42.636;23.198;2023-02-28T10:17:59;92491.22;;;7.71;100.00
37206;BME280;23099;42.636;23.198;2023-02-28T10:20:30;92492.31;;;7.58;100.00
37206;BME280;23099;42.636;23.198;2023-02-28T10:23:04;92490.44;;;7.58;100.00
37206;BME280;23099;42.636;23.198;2023-02-28T10:25:37;92487.00;;;7.70;100.00
37206;BME280;23099;42.636;23.198;2023-02-28T10:28:10;92474.63;;;7.74;100.00
37206;BME280;23099;42.636;23.198;2023-02-28T10:30:39;92479.50;;;7.72;100.00
37206;BME280;23099;42.636;23.198;2023-02-28T10:33:16;92481.94;;;7.77;100.00
37206;BME280;23099;42.636;23.198;2023-02-28T10:35:46;92467.19;;;7.79;100.00
37206;BME280;23099;42.636;23.198;2023-02-28T10:38:17;92467.31;;;7.83;100.00
37206;BME280;23099;42.636;23.198;2023-02-28T10:40:44;92463.97;;;7.86;100.00
37206;BME280;23099;42.636;23.198;2023-02-28T10:43:19;92463.00;;;7.91;100.00
37206;BME280;23099;42.636;23.198;2023-02-28T10:46:02;92466.66;;;8.10;100.00
37206;BME280;23099;42.636;23.198;2023-02-28T10:48:32;92465.66;;;8.27;100.00
37206;BME280;23099;42.636;23.198;2023-02-28T10:51:01;92449.22;;;8.37;100.00
37206;BME280;23099;42.636;23.198;2023-02-28T10:53:32;92446.03;;;8.44;100.00
37206;BME280;23099;42.636;23.198;2023-02-28T10:56:01;92435.84;;;8.34;100.00
37206;BME280;23099;42.636;23.198;2023-02-28T10:58:31;92448.91;;;8.51;100.00
37206;BME280;23099;42.636;23.198;2023-02-28T11:00:59;92443.09;;;8.61;100.00
37206;BME280;23099;42.636;23.198;2023-02-28T11:03:31;92442.41;;;8.76;100.00
37206;BME280;23099;42.636;23.198;2023-02-28T11:06:06;92436.84;;;8.69;100.00
37206;BME280;23099;42.636;23.198;2023-02-28T11:08:33;92431.50;;;8.81;100.00
37206;BME280;23099;42.636;23.198;2023-02-28T11:11:04;92426.03;;;8.90;100.00
37206;BME280;23099;42.636;23.198;2023-02-28T11:13:33;92425.03;;;9.10;100.00
37206;BME280;23099;42.636;23.198;2023-02-28T11:16:04;92432.56;;;9.20;100.00
37206;BME280;23099;42.636;23.198;2023-02-28T11:18:39;92422.53;;;9.45;100.00
37206;BME280;23099;42.636;23.198;2023-02-28T11:21:09;92420.41;;;9.51;100.00
37206;BME280;23099;42.636;23.198;2023-02-28T11:23:42;92414.97;;;9.47;100.00
37206;BME280;23099;42.636;23.198;2023-02-28T11:26:09;92406.91;;;9.75;100.00
37206;BME280;23099;42.636;23.198;2023-02-28T11:28:38;92413.69;;;10.04;100.00
37206;BME280;23099;42.636;23.198;2023-02-28T11:31:17;92415.56;;;10.35;100.00
37206;BME280;23099;42.636;23.198;2023-02-28T11:33:46;92410.00;;;10.79;98.94
37206;BME280;23099;42.636;23.198;2023-02-28T11:36:19;92408.34;;;11.09;95.73
37206;BME280;23099;42.636;23.198;2023-02-28T11:38:50;92407.78;;;11.42;95.83
37206;BME280;23099;42.636;23.198;2023-02-28T11:41:33;92405.22;;;11.68;91.53
37206;BME280;23099;42.636;23.198;2023-02-28T11:44:12;92399.25;;;12.01;91.53
37206;BME280;23099;42.636;23.198;2023-02-28T11:46:47;92401.25;;;12.31;89.73
37206;BME280;23099;42.636;23.198;2023-02-28T11:49:32;92399.47;;;12.16;86.14
37206;BME280;23099;42.636;23.198;2023-02-28T11:52:06;92403.81;;;12.24;85.49
37206;BME280;23099;42.636;23.198;2023-02-28T11:54:53;92400.16;;;12.35;86.74
37206;BME280;23099;42.636;23.198;2023-02-28T11:57:35;92385.88;;;12.28;86.62
37206;BME280;23099;42.636;23.198;2023-02-28T12:00:06;92388.72;;;12.38;86.17
37206;BME280;23099;42.636;23.198;2023-02-28T12:02:47;92394.22;;;12.49;85.25
37206;BME280;23099;42.636;23.198;2023-02-28T12:05:24;92393.63;;;12.33;84.08
37206;BME280;23099;42.636;23.198;2023-02-28T12:08:03;92394.06;;;12.12;85.17
37206;BME280;23099;42.636;23.198;2023-02-28T12:10:37;92395.50;;;11.83;85.94
37206;BME280;23099;42.636;23.198;2023-02-28T12:13:16;92388.31;;;11.87;86.54
37206;BME280;23099;42.636;23.198;2023-02-28T12:16:00;92395.94;;;11.85;85.88
37206;BME280;23099;42.636;23.198;2023-02-28T12:18:48;92386.50;;;11.72;86.65
37206;BME280;23099;42.636;23.198;2023-02-28T12:21:25;92387.38;;;11.76;86.42
37206;BME280;23099;42.636;23.198;2023-02-28T12:24:16;92385.47;;;11.77;86.39
37206;BME280;23099;42.636;23.198;2023-02-28T12:26:49;92389.03;;;11.84;87.15
37206;BME280;23099;42.636;23.198;2023-02-28T12:29:21;92382.53;;;11.85;83.84
37206;BME280;23099;42.636;23.198;2023-02-28T12:31:52;92380.88;;;11.77;84.70
37206;BME280;23099;42.636;23.198;2023-02-28T12:34:22;92371.22;;;11.50;86.48
37206;BME280;23099;42.636;23.198;2023-02-28T12:36:52;92375.03;;;11.49;86.28
37206;BME280;23099;42.636;23.198;2023-02-28T12:39:25;92383.75;;;11.23;85.50
37206;BME280;23099;42.636;23.198;2023-02-28T12:41:54;92373.34;;;10.98;85.69
37206;BME280;23099;42.636;23.198;2023-02-28T12:44:27;92377.63;;;10.84;86.40
37206;BME280;23099;42.636;23.198;2023-02-28T12:46:58;92381.66;;;10.74;87.25
37206;BME280;23099;42.636;23.198;2023-02-28T12:49:30;92370.06;;;10.67;87.56
37206;BME280;23099;42.636;23.198;2023-02-28T12:51:59;92361.94;;;10.63;87.83
37206;BME280;23099;42.636;23.198;2023-02-28T12:54:32;92372.22;;;10.61;88.75
37206;BME280;23099;42.636;23.198;2023-02-28T12:57:09;92365.41;;;10.63;88.87
37206;BME280;23099;42.636;23.198;2023-02-28T12:59:41;92360.06;;;10.63;87.43
37206;BME280;23099;42.636;23.198;2023-02-28T13:02:26;92362.09;;;10.51;87.63
37206;BME280;23099;42.636;23.198;2023-02-28T13:05:17;92365.00;;;10.26;88.64